In Rescue
 
Open Full Screen Window  High Contrast Mode
Wind Gusting 00 knots
07
May 25, 2022 10:44 PM EDT
Present Weather: Mist
Weather Information
Wind Direction
  120 °
Wind Speed
  07 kt (8 mph)
Wind Gust
  00 kt (0 mph)
Altimeter
29.88 in
Visibility
4 SM
Temperature
16° C
61° F
Dewpoint
15° C
59° F
Humidity
94%
Sky Condition
Overcast @ 400 ft
LIFR

METAR KCAD 260244Z AUTO 12007KT 4SM BR OVC004 16/15 A2988 RMK AO2 T01600153

FAA Disclaimer: The data displayed is for advisory purposes only and is not to be used for flight planning or operations.